createdAt,value
2022-11-26T00:01:31.029Z,102094.47
2022-11-26T00:04:33.982Z,102090.03
2022-11-26T00:07:37.102Z,102090.91
2022-11-26T00:10:40.113Z,102094.47
2022-11-26T00:13:43.052Z,102098.91
2022-11-26T00:16:47.448Z,102103.34
2022-11-26T00:19:50.526Z,102105.97
2022-11-26T00:22:55.311Z,102099.81
2022-11-26T00:26:01.297Z,102098.91
2022-11-26T00:29:04.386Z,102098.91
2022-11-26T00:32:16.124Z,102107.78
2022-11-26T00:35:19.770Z,102103.34
2022-11-26T00:38:23.647Z,102098.03
2022-11-26T00:41:31.948Z,102103.41
2022-11-26T00:44:35.047Z,102103.34
2022-11-26T00:47:39.619Z,102110.44
2022-11-26T00:50:46.291Z,102122.91
2022-11-26T00:53:50.273Z,102121.16
2022-11-26T00:56:53.467Z,102137.13
2022-11-26T00:59:56.399Z,102126.47
2022-11-26T01:03:01.320Z,102134.44
2022-11-26T01:06:04.338Z,102136.22
2022-11-26T01:09:08.106Z,102137.13
2022-11-26T01:12:15.011Z,102142.44
2022-11-26T01:15:19.542Z,102138.94
2022-11-26T01:18:25.094Z,102138.94
2022-11-26T01:21:30.482Z,102133.63
2022-11-26T01:24:33.486Z,102137.19
2022-11-26T01:27:36.475Z,102143.44
2022-11-26T01:30:40.554Z,102139.00
2022-11-26T01:33:45.577Z,102139.00
2022-11-26T01:36:48.604Z,102137.28
2022-11-26T01:39:51.546Z,102158.56
2022-11-26T01:43:00.146Z,102153.25
2022-11-26T01:46:03.168Z,102152.34
2022-11-26T01:49:20.015Z,102153.25
2022-11-26T01:52:25.943Z,102166.53
2022-11-26T01:55:37.105Z,102167.44
2022-11-26T01:58:43.518Z,102169.22
2022-11-26T02:01:46.829Z,102172.75
2022-11-26T02:04:59.535Z,102172.75
2022-11-26T02:08:03.986Z,102188.72
2022-11-26T02:11:17.842Z,102178.09
2022-11-26T02:14:23.739Z,102195.00
2022-11-26T02:17:36.235Z,102193.22
2022-11-26T02:20:50.735Z,102199.44
2022-11-26T02:24:11.833Z,102200.31
2022-11-26T02:27:56.078Z,102200.31
2022-11-26T02:31:06.402Z,102205.63
2022-11-26T02:34:16.166Z,102208.28
2022-11-26T02:37:24.302Z,102201.19
2022-11-26T02:40:27.615Z,102213.63
2022-11-26T02:43:32.330Z,102211.84
2022-11-26T02:46:38.730Z,102217.16
2022-11-26T02:49:43.991Z,102222.50
2022-11-26T02:52:49.648Z,102221.66
2022-11-26T02:56:00.767Z,102218.09
2022-11-26T02:59:05.659Z,102229.63
2022-11-26T03:02:15.974Z,102229.63
2022-11-26T03:05:20.689Z,102226.97
2022-11-26T03:08:25.171Z,102226.09
2022-11-26T03:11:28.761Z,102228.75
2022-11-26T03:14:31.707Z,102226.09
2022-11-26T03:17:36.046Z,102238.47
2022-11-26T03:20:39.044Z,102232.28
2022-11-26T03:23:42.169Z,102242.94
2022-11-26T03:26:45.140Z,102245.59
2022-11-26T03:29:48.205Z,102242.06
2022-11-26T03:32:52.643Z,102253.59
2022-11-26T03:35:55.562Z,102259.75
2022-11-26T03:38:58.523Z,102260.59
2022-11-26T03:42:01.565Z,102257.88
2022-11-26T03:45:04.994Z,102256.00
2022-11-26T03:48:10.298Z,102262.16
2022-11-26T03:51:13.262Z,102260.34
2022-11-26T03:54:16.473Z,102265.56
2022-11-26T03:57:20.245Z,102269.06
2022-11-26T04:00:23.631Z,102268.13
2022-11-26T04:03:28.084Z,102266.34
2022-11-26T04:06:31.178Z,102275.16
2022-11-26T04:09:34.286Z,102266.28
2022-11-26T04:12:37.590Z,102276.94
2022-11-26T04:15:40.550Z,102271.66
2022-11-26T04:18:45.005Z,102282.31
2022-11-26T04:21:48.064Z,102274.38
2022-11-26T04:24:50.991Z,102278.81
2022-11-26T04:27:54.055Z,102277.09
2022-11-26T04:30:57.074Z,102297.50
2022-11-26T04:34:01.448Z,102301.09
2022-11-26T04:37:04.410Z,102303.81
2022-11-26T04:40:08.649Z,102310.91
2022-11-26T04:43:11.638Z,102310.06
2022-11-26T04:46:14.641Z,102324.31
2022-11-26T04:49:18.957Z,102327.03
2022-11-26T04:52:21.943Z,102327.06
2022-11-26T04:55:25.409Z,102333.28
2022-11-26T04:58:28.652Z,102331.50
2022-11-26T05:01:31.695Z,102335.09
2022-11-26T05:04:36.329Z,102335.09
2022-11-26T05:07:40.174Z,102339.53
2022-11-26T05:10:43.295Z,102350.19
2022-11-26T05:13:46.271Z,102348.41
2022-11-26T05:16:49.268Z,102355.56
2022-11-26T05:19:53.710Z,102352.91
2022-11-26T05:22:56.720Z,102357.34
2022-11-26T05:25:59.651Z,102366.19
2022-11-26T05:29:02.625Z,102371.53
2022-11-26T05:32:06.380Z,102368.88
2022-11-26T05:35:11.395Z,102373.31
2022-11-26T05:38:14.398Z,102383.03
2022-11-26T05:41:17.405Z,102381.19
2022-11-26T05:44:20.375Z,102378.53
2022-11-26T05:47:23.563Z,102385.63
2022-11-26T05:50:27.894Z,102391.81
2022-11-26T05:53:31.555Z,102398.91
2022-11-26T05:56:34.595Z,102405.09
2022-11-26T05:59:37.731Z,102405.09
2022-11-26T06:02:40.760Z,102406.88
2022-11-26T06:05:45.302Z,102414.81
2022-11-26T06:08:48.278Z,102415.72
2022-11-26T06:11:51.647Z,102416.59
2022-11-26T06:14:54.606Z,102426.34
2022-11-26T06:17:57.638Z,102428.13
2022-11-26T06:21:02.736Z,102427.25
2022-11-26T06:24:06.539Z,102436.13
2022-11-26T06:27:09.587Z,102437.88
2022-11-26T06:30:13.680Z,102444.16
2022-11-26T06:33:16.746Z,102449.47
2022-11-26T06:36:21.202Z,102451.25
2022-11-26T06:39:24.173Z,102451.25
2022-11-26T06:42:27.282Z,102459.25
2022-11-26T06:45:30.575Z,102463.72
2022-11-26T06:48:34.307Z,102459.28
2022-11-26T06:51:38.730Z,102472.53
2022-11-26T06:54:41.791Z,102466.38
2022-11-26T06:57:44.761Z,102468.16
2022-11-26T07:00:47.687Z,102478.78
2022-11-26T07:03:50.989Z,102488.50
2022-11-26T07:06:55.378Z,102480.53
2022-11-26T07:09:58.307Z,102487.66
2022-11-26T07:13:01.449Z,102491.22
2022-11-26T07:16:05.842Z,102500.09
2022-11-26T07:19:08.794Z,102495.66
2022-11-26T07:22:13.227Z,102500.97
2022-11-26T07:25:17.161Z,102502.78
2022-11-26T07:28:20.139Z,102500.97
2022-11-26T07:31:24.270Z,102500.13
2022-11-26T07:34:27.339Z,102499.19
2022-11-26T07:37:33.257Z,102507.19
2022-11-26T07:40:36.436Z,102516.94
2022-11-26T07:43:40.924Z,102516.94
2022-11-26T07:46:43.850Z,102508.06
2022-11-26T07:49:46.792Z,102517.78
2022-11-26T07:52:52.936Z,102526.72
2022-11-26T07:55:56.120Z,102532.03
2022-11-26T07:58:59.091Z,102527.59
2022-11-26T08:02:02.182Z,102539.09
2022-11-26T08:05:05.778Z,102541.75
2022-11-26T08:08:10.909Z,102546.19
2022-11-26T08:11:16.423Z,102543.53
2022-11-26T08:14:19.373Z,102547.91
2022-11-26T08:17:22.548Z,102556.78
2022-11-26T08:20:29.029Z,102554.13
2022-11-26T08:23:35.814Z,102562.97
2022-11-26T08:26:43.910Z,102562.13
2022-11-26T08:29:47.658Z,102563.00
2022-11-26T08:32:50.685Z,102568.31
2022-11-26T08:36:06.585Z,102570.13
2022-11-26T08:39:13.874Z,102576.34
2022-11-26T08:42:17.089Z,102581.63
2022-11-26T08:45:20.178Z,102587.00
2022-11-26T08:48:27.884Z,102591.44
2022-11-26T08:51:34.619Z,102579.94
2022-11-26T08:54:44.607Z,102584.34
2022-11-26T08:57:48.769Z,102588.81
2022-11-26T09:00:51.786Z,102598.53
2022-11-26T09:03:56.478Z,102602.09
2022-11-26T09:06:59.414Z,102611.84
2022-11-26T09:10:03.766Z,102612.75
2022-11-26T09:13:07.091Z,102610.97
2022-11-26T09:16:10.224Z,102609.22
2022-11-26T09:19:14.970Z,102614.53
2022-11-26T09:22:17.923Z,102620.75
2022-11-26T09:25:22.330Z,102631.41
2022-11-26T09:28:25.501Z,102634.06
2022-11-26T09:31:29.128Z,102634.03
2022-11-26T09:34:32.453Z,102644.63
2022-11-26T09:37:35.400Z,102640.19
2022-11-26T09:40:48.244Z,102653.50
2022-11-26T09:44:07.060Z,102651.78
2022-11-26T09:47:18.032Z,102651.84
2022-11-26T09:50:28.015Z,102661.66
2022-11-26T09:53:36.545Z,102665.19
2022-11-26T09:56:40.918Z,102666.94
2022-11-26T09:59:46.570Z,102666.88
2022-11-26T10:02:49.547Z,102661.50
2022-11-26T10:05:59.227Z,102667.63
2022-11-26T10:09:17.331Z,102671.06
2022-11-26T10:12:30.975Z,102670.97
2022-11-26T10:15:39.758Z,102677.97
2022-11-26T10:18:51.172Z,102680.56
2022-11-26T10:21:58.968Z,102677.91
2022-11-26T10:25:04.172Z,102684.97
2022-11-26T10:28:19.978Z,102686.75
2022-11-26T10:31:25.727Z,102684.94
2022-11-26T10:34:39.324Z,102684.97
2022-11-26T10:37:42.932Z,102693.84
2022-11-26T10:40:46.081Z,102693.88
2022-11-26T10:43:50.537Z,102696.56
2022-11-26T10:46:53.653Z,102697.47
2022-11-26T10:50:39.474Z,102706.34
2022-11-26T10:53:51.803Z,102709.06
2022-11-26T10:56:55.406Z,102712.63
2022-11-26T11:00:00.294Z,102716.19
2022-11-26T11:03:05.857Z,102722.41
2022-11-26T11:06:24.926Z,102720.66
2022-11-26T11:09:32.321Z,102724.22
2022-11-26T11:12:35.714Z,102726.03
2022-11-26T11:15:41.595Z,102720.69
2022-11-26T11:18:52.945Z,102728.72
2022-11-26T11:21:56.011Z,102727.84
2022-11-26T11:25:01.152Z,102728.72
2022-11-26T11:28:15.172Z,102722.50
2022-11-26T11:31:22.285Z,102721.66
2022-11-26T11:34:30.658Z,102730.50
2022-11-26T11:37:33.763Z,102730.50
2022-11-26T11:40:43.009Z,102727.84
2022-11-26T11:43:46.184Z,102731.44
2022-11-26T11:47:25.330Z,102736.75
2022-11-26T11:50:33.823Z,102736.75
2022-11-26T11:53:44.542Z,102730.53
2022-11-26T11:56:52.593Z,102740.28
2022-11-26T12:00:13.249Z,102733.22
2022-11-26T12:03:49.784Z,102742.09
2022-11-26T12:07:14.229Z,102740.38
2022-11-26T12:10:29.726Z,102748.31
2022-11-26T12:13:43.009Z,102742.09
2022-11-26T12:16:51.302Z,102741.22
2022-11-26T12:20:00.887Z,102739.44
2022-11-26T12:23:22.619Z,102749.22
2022-11-26T12:26:33.472Z,102743.88
2022-11-26T12:29:41.415Z,102746.53
2022-11-26T12:32:50.645Z,102743.00
2022-11-26T12:35:57.655Z,102743.88
2022-11-26T12:39:04.370Z,102739.44
2022-11-26T12:42:17.262Z,102740.28
2022-11-26T12:45:28.748Z,102740.28
2022-11-26T12:48:44.530Z,102742.97
2022-11-26T12:51:57.262Z,102746.50
2022-11-26T12:55:12.396Z,102741.16
2022-11-26T12:58:20.438Z,102741.16
2022-11-26T13:01:24.578Z,102744.69
2022-11-26T13:04:37.654Z,102750.91
2022-11-26T13:07:57.636Z,102758.91
2022-11-26T13:11:16.240Z,102756.25
2022-11-26T13:14:27.133Z,102756.25
2022-11-26T13:17:38.805Z,102749.13
2022-11-26T13:21:02.350Z,102754.47
2022-11-26T13:24:47.943Z,102761.56
2022-11-26T13:28:00.032Z,102769.56
2022-11-26T13:31:22.215Z,102772.19
2022-11-26T13:34:57.800Z,102768.63
2022-11-26T13:38:17.441Z,102771.28
2022-11-26T13:41:36.429Z,102778.44
2022-11-26T13:44:59.655Z,102776.63
2022-11-26T13:48:07.642Z,102770.44
2022-11-26T13:51:20.585Z,102772.22
2022-11-26T13:54:29.506Z,102772.22
2022-11-26T13:57:41.246Z,102775.75
2022-11-26T14:00:44.649Z,102778.44
2022-11-26T14:03:49.494Z,102783.75
2022-11-26T14:07:20.924Z,102781.09
2022-11-26T14:10:43.361Z,102785.56
2022-11-26T14:14:26.089Z,102792.63
2022-11-26T14:17:34.967Z,102791.75
2022-11-26T14:21:14.375Z,102799.72
2022-11-26T14:24:56.498Z,102799.72
2022-11-26T14:28:01.830Z,102797.06
2022-11-26T14:31:13.337Z,102798.88
2022-11-26T14:34:21.127Z,102799.75
2022-11-26T14:37:27.238Z,102804.19
2022-11-26T14:40:32.901Z,102815.75
2022-11-26T14:43:35.922Z,102809.53
2022-11-26T14:46:39.897Z,102808.63
2022-11-26T14:49:46.077Z,102796.22
2022-11-26T14:52:56.462Z,102796.22
2022-11-26T14:56:00.090Z,102810.38
2022-11-26T14:59:03.513Z,102808.59
2022-11-26T15:02:22.207Z,102809.53
2022-11-26T15:05:26.738Z,102804.19
2022-11-26T15:08:31.125Z,102816.63
2022-11-26T15:11:35.447Z,102816.63
2022-11-26T15:14:41.679Z,102813.97
2022-11-26T15:17:48.174Z,102820.19
2022-11-26T15:20:53.722Z,102829.94
2022-11-26T15:24:00.501Z,102821.06
2022-11-26T15:27:03.494Z,102817.50
2022-11-26T15:30:19.473Z,102821.94
2022-11-26T15:33:22.764Z,102823.69
2022-11-26T15:36:25.738Z,102823.69
2022-11-26T15:39:31.905Z,102833.50
2022-11-26T15:42:35.417Z,102832.59
2022-11-26T15:45:41.676Z,102826.44
2022-11-26T15:48:52.934Z,102830.81
2022-11-26T15:51:59.880Z,102829.09
2022-11-26T15:55:15.463Z,102830.81
2022-11-26T15:58:23.321Z,102832.63
2022-11-26T16:01:30.152Z,102830.81
2022-11-26T16:04:41.357Z,102836.16
2022-11-26T16:07:57.831Z,102823.72
2022-11-26T16:11:09.826Z,102831.72
2022-11-26T16:14:30.750Z,102833.50
2022-11-26T16:17:34.072Z,102838.81
2022-11-26T16:20:37.110Z,102841.47
2022-11-26T16:23:40.102Z,102839.69
2022-11-26T16:27:00.843Z,102835.28
2022-11-26T16:30:08.539Z,102834.41
2022-11-26T16:33:11.883Z,102837.06
2022-11-26T16:36:20.417Z,102839.72
2022-11-26T16:39:27.409Z,102837.06
2022-11-26T16:42:34.455Z,102839.69
2022-11-26T16:45:37.426Z,102839.69
2022-11-26T16:48:41.630Z,102842.38
2022-11-26T16:51:44.618Z,102845.03
2022-11-26T16:54:47.994Z,102838.81
2022-11-26T16:57:56.846Z,102836.16
2022-11-26T17:01:00.314Z,102847.69
2022-11-26T17:04:03.309Z,102845.06
2022-11-26T17:07:06.381Z,102849.47
2022-11-26T17:10:14.685Z,102852.13
2022-11-26T17:13:20.590Z,102862.78
2022-11-26T17:16:26.175Z,102855.72
2022-11-26T17:19:29.311Z,102865.44
2022-11-26T17:22:32.234Z,102861.03
2022-11-26T17:25:35.148Z,102861.94
2022-11-26T17:28:39.564Z,102853.03
2022-11-26T17:31:42.558Z,102862.78
2022-11-26T17:34:46.081Z,102865.50
2022-11-26T17:37:49.090Z,102870.88
2022-11-26T17:40:52.089Z,102866.53
2022-11-26T17:43:56.481Z,102870.19
2022-11-26T17:47:16.308Z,102878.16
2022-11-26T17:50:22.985Z,102871.06
2022-11-26T17:53:26.051Z,102871.88
2022-11-26T17:56:29.208Z,102869.16
2022-11-26T17:59:33.786Z,102881.47
2022-11-26T18:02:37.001Z,102869.81
2022-11-26T18:05:42.263Z,102880.31
2022-11-26T18:08:46.107Z,102878.34
2022-11-26T18:11:51.521Z,102885.34
2022-11-26T18:14:57.135Z,102875.44
2022-11-26T18:18:00.703Z,102872.69
2022-11-26T18:21:03.674Z,102869.97
2022-11-26T18:24:08.212Z,102864.63
2022-11-26T18:27:11.151Z,102866.34
2022-11-26T18:30:16.509Z,102865.50
2022-11-26T18:33:19.517Z,102864.66
2022-11-26T18:36:22.526Z,102862.91
2022-11-26T18:39:25.650Z,102866.50
2022-11-26T18:42:37.424Z,102865.66
2022-11-26T18:45:44.120Z,102863.88
2022-11-26T18:48:48.913Z,102869.28
2022-11-26T18:51:51.899Z,102866.63
2022-11-26T18:54:54.955Z,102873.78
2022-11-26T18:57:57.978Z,102877.38
2022-11-26T19:01:02.486Z,102880.97
2022-11-26T19:04:06.407Z,102873.91
2022-11-26T19:07:10.282Z,102877.44
2022-11-26T19:10:13.557Z,102873.03
2022-11-26T19:13:17.342Z,102873.94
2022-11-26T19:16:22.813Z,102863.31
2022-11-26T19:19:29.652Z,102865.97
2022-11-26T19:22:32.701Z,102864.25
2022-11-26T19:25:35.743Z,102850.06
2022-11-26T19:28:38.802Z,102842.97
2022-11-26T19:31:43.213Z,102848.28
2022-11-26T19:34:46.194Z,102857.19
2022-11-26T19:37:49.242Z,102863.41
2022-11-26T19:40:57.074Z,102868.78
2022-11-26T19:44:01.442Z,102867.00
2022-11-26T19:47:05.902Z,102869.69
2022-11-26T19:50:10.485Z,102877.69
2022-11-26T19:53:13.574Z,102874.13
2022-11-26T19:56:19.243Z,102878.59
2022-11-26T19:59:22.441Z,102874.16
2022-11-26T20:02:26.882Z,102877.72
2022-11-26T20:05:29.929Z,102876.81
2022-11-26T20:08:33.303Z,102871.50
2022-11-26T20:11:38.478Z,102875.94
2022-11-26T20:14:41.555Z,102870.63
2022-11-26T20:17:46.009Z,102867.09
2022-11-26T20:20:58.900Z,102870.63
2022-11-26T20:24:05.694Z,102873.28
2022-11-26T20:27:08.705Z,102881.25
2022-11-26T20:30:12.606Z,102867.94
2022-11-26T20:33:20.074Z,102878.56
2022-11-26T20:36:24.096Z,102879.47
2022-11-26T20:39:28.712Z,102872.31
2022-11-26T20:42:33.377Z,102872.31
2022-11-26T20:45:36.560Z,102869.66
2022-11-26T20:48:43.186Z,102869.66
2022-11-26T20:51:46.105Z,102873.22
2022-11-26T20:54:53.445Z,102884.75
2022-11-26T20:57:56.873Z,102884.75
2022-11-26T21:01:00.198Z,102886.53
2022-11-26T21:04:04.688Z,102885.66
2022-11-26T21:07:07.762Z,102890.97
2022-11-26T21:10:11.775Z,102890.97
2022-11-26T21:13:16.581Z,102892.75
2022-11-26T21:16:19.773Z,102886.50
2022-11-26T21:19:24.645Z,102882.97
2022-11-26T21:22:27.686Z,102885.66
2022-11-26T21:25:30.642Z,102881.16
2022-11-26T21:28:33.613Z,102883.84
2022-11-26T21:31:37.204Z,102880.31
2022-11-26T21:34:41.743Z,102877.63
2022-11-26T21:37:44.749Z,102869.66
2022-11-26T21:40:47.893Z,102872.31
2022-11-26T21:43:51.647Z,102871.41
2022-11-26T21:46:54.690Z,102863.44
2022-11-26T21:49:59.091Z,102862.56
2022-11-26T21:53:02.181Z,102869.66
2022-11-26T21:56:06.741Z,102856.34
2022-11-26T21:59:10.844Z,102853.69
2022-11-26T22:02:14.464Z,102857.19
2022-11-26T22:05:18.905Z,102867.84
2022-11-26T22:08:22.282Z,102859.00
2022-11-26T22:11:27.569Z,102866.09
2022-11-26T22:14:30.654Z,102865.19
2022-11-26T22:17:33.690Z,102872.31
2022-11-26T22:20:39.695Z,102875.88
2022-11-26T22:23:42.677Z,102880.31
2022-11-26T22:26:46.155Z,102875.84
2022-11-26T22:29:49.162Z,102875.84
2022-11-26T22:32:52.194Z,102876.72
2022-11-26T22:35:56.616Z,102882.06
2022-11-26T22:39:00.474Z,102876.72
2022-11-26T22:42:04.013Z,102882.06
2022-11-26T22:45:08.125Z,102882.06
2022-11-26T22:48:12.398Z,102878.50
2022-11-26T22:51:17.038Z,102882.06
2022-11-26T22:54:21.377Z,102879.44
2022-11-26T22:57:25.666Z,102891.00
2022-11-26T23:00:50.294Z,102882.16
2022-11-26T23:03:54.577Z,102887.50
2022-11-26T23:06:58.958Z,102885.75
2022-11-26T23:10:01.995Z,102889.34
2022-11-26T23:13:06.698Z,102879.59
2022-11-26T23:16:10.588Z,102892.94
2022-11-26T23:19:15.774Z,102887.59
2022-11-26T23:22:20.181Z,102878.72
2022-11-26T23:25:23.117Z,102881.31
2022-11-26T23:28:26.127Z,102879.47
2022-11-26T23:31:31.352Z,102871.38
2022-11-26T23:34:34.422Z,102871.31
2022-11-26T23:37:39.318Z,102869.47
2022-11-26T23:40:42.310Z,102869.47
2022-11-26T23:43:45.850Z,102870.31
2022-11-26T23:46:48.842Z,102856.09
2022-11-26T23:49:51.922Z,102859.63
2022-11-26T23:52:56.223Z,102859.63
2022-11-26T23:56:03.661Z,102858.75
2022-11-26T23:59:06.999Z,102857.00
